Time;durP1;ratioP1;P1;durP2;ratioP2;P2;SDS_P1;SDS_P2;PMS_P1;PMS_P2;Temp;Humidity;BMP_temperature;BMP_pressure;BME280_temperature;BME280_humidity;BME280_pressure;Samples;Min_cycle;Max_cycle;Signal;HPM_P1;HPM_P2
2023/10/21 00:00:51;;;;;;;416.27;375.48;;;;;;;;;;5050249;28;20454;-67
2023/10/21 00:03:17;;;;;;;410.48;371.45;;;;;;;;;;5050079;28;20475;-68
2023/10/21 00:05:43;;;;;;;416.75;376.50;;;;;;;;;;5050570;28;20032;-68
2023/10/21 00:08:09;;;;;;;404.20;367.40;;;;;;;;;;5050067;28;20503;-68
2023/10/21 00:10:35;;;;;;;434.48;390.23;;;;;;;;;;5050686;28;20030;-67
2023/10/21 00:13:01;;;;;;;439.67;394.55;;;;;;;;;;5048672;28;20039;-67
2023/10/21 00:15:30;;;;;;;426.75;383.58;;;;;;;;;;5046712;28;20468;-67
2023/10/21 00:17:56;;;;;;;417.52;376.05;;;;;;;;;;5050429;28;20029;-68
2023/10/21 00:20:22;;;;;;;411.00;371.92;;;;;;;;;;5050675;28;20115;-67
2023/10/21 00:22:48;;;;;;;428.25;385.23;;;;;;;;;;5050625;28;20143;-65
2023/10/21 00:25:14;;;;;;;434.00;390.55;;;;;;;;;;5049783;28;20640;-65
2023/10/21 00:27:40;;;;;;;419.27;377.77;;;;;;;;;;5050132;28;20037;-65
2023/10/21 00:30:06;;;;;;;426.88;384.23;;;;;;;;;;5048490;28;20048;-66
2023/10/21 00:32:32;;;;;;;430.55;386.55;;;;;;;;;;5050286;28;20427;-66
2023/10/21 00:34:58;;;;;;;438.15;392.70;;;;;;;;;;5046106;28;20108;-67
2023/10/21 00:37:24;;;;;;;433.27;388.50;;;;;;;;;;5050395;28;20051;-65
2023/10/21 00:39:50;;;;;;;425.58;383.10;;;;;;;;;;5050070;28;20044;-66
2023/10/21 00:42:16;;;;;;;433.33;390.38;;;;;;;;;;5049716;28;20048;-65
2023/10/21 00:44:42;;;;;;;412.90;374.00;;;;;;;;;;5050019;28;20021;-65
2023/10/21 00:47:08;;;;;;;417.30;379.35;;;;;;;;;;5053566;28;20075;-66
2023/10/21 00:49:34;;;;;;;420.58;381.25;;;;;;;;;;5054450;28;20024;-66
2023/10/21 00:52:00;;;;;;;424.50;384.58;;;;;;;;;;5053459;28;20344;-66
2023/10/21 00:54:27;;;;;;;422.23;382.90;;;;;;;;;;5053904;28;20040;-65
2023/10/21 00:56:56;;;;;;;423.65;384.30;;;;;;;;;;5052904;28;20032;-65
2023/10/21 00:59:23;;;;;;;425.52;383.95;;;;;;;;;;5051773;28;20033;-66
2023/10/21 01:01:49;;;;;;;416.85;376.35;;;;;;;;;;5051990;28;20052;-66
2023/10/21 01:04:16;;;;;;;422.17;378.40;;;;;;;;;;5053167;28;20021;-66
2023/10/21 01:06:43;;;;;;;415.55;374.88;;;;;;;;;;5053742;28;20017;-66
2023/10/21 01:09:15;;;;;;;420.10;379.30;;;;;;;;;;5053073;28;20023;-66
2023/10/21 01:11:41;;;;;;;419.73;376.55;;;;;;;;;;5053785;28;20075;-66
2023/10/21 01:14:09;;;;;;;433.23;389.10;;;;;;;;;;5051513;28;20029;-66
2023/10/21 01:16:35;;;;;;;426.67;382.98;;;;;;;;;;5051349;28;20104;-66
2023/10/21 01:19:01;;;;;;;431.60;386.95;;;;;;;;;;5052749;28;20395;-67
2023/10/21 01:21:29;;;;;;;420.95;379.50;;;;;;;;;;5053356;28;20029;-66
2023/10/21 01:23:55;;;;;;;413.00;373.40;;;;;;;;;;5053477;28;20024;-66
2023/10/21 01:26:21;;;;;;;410.83;372.17;;;;;;;;;;5051185;28;20113;-66
2023/10/21 01:28:47;;;;;;;418.08;377.73;;;;;;;;;;5049646;28;20033;-66
2023/10/21 01:31:13;;;;;;;403.70;368.15;;;;;;;;;;5052858;28;20040;-67
2023/10/21 01:33:39;;;;;;;422.77;380.55;;;;;;;;;;5053245;28;20032;-66
2023/10/21 01:36:05;;;;;;;439.13;395.08;;;;;;;;;;5052701;28;20028;-66
2023/10/21 01:38:34;;;;;;;418.92;378.23;;;;;;;;;;5053106;28;20087;-66
2023/10/21 01:41:00;;;;;;;405.52;368.48;;;;;;;;;;5052317;28;20499;-67
2023/10/21 01:43:27;;;;;;;419.60;379.20;;;;;;;;;;5052992;28;20017;-66
2023/10/21 01:45:53;;;;;;;432.27;388.30;;;;;;;;;;5051342;28;20546;-66
2023/10/21 01:48:19;;;;;;;439.17;393.77;;;;;;;;;;5052463;28;20036;-66
2023/10/21 01:50:45;;;;;;;426.45;384.35;;;;;;;;;;5052852;28;20391;-66
2023/10/21 01:53:11;;;;;;;421.33;380.30;;;;;;;;;;5052150;28;20040;-66
2023/10/21 01:55:37;;;;;;;425.00;382.98;;;;;;;;;;5052642;28;20117;-66
2023/10/21 01:58:04;;;;;;;422.63;381.52;;;;;;;;;;5052085;28;20068;-66
2023/10/21 02:00:30;;;;;;;418.98;378.08;;;;;;;;;;5052135;28;20053;-66
2023/10/21 02:02:57;;;;;;;414.30;374.65;;;;;;;;;;5052645;28;20397;-67
2023/10/21 02:05:23;;;;;;;423.10;381.73;;;;;;;;;;5051419;28;20171;-67
2023/10/21 02:07:50;;;;;;;423.52;381.50;;;;;;;;;;5052866;28;20052;-67
2023/10/21 02:10:19;;;;;;;428.85;387.10;;;;;;;;;;5052382;28;20029;-67
2023/10/21 02:12:45;;;;;;;422.23;381.27;;;;;;;;;;5052692;28;20035;-67
2023/10/21 02:15:17;;;;;;;425.08;384.23;;;;;;;;;;5048010;28;20029;-67
2023/10/21 02:17:44;;;;;;;422.90;381.30;;;;;;;;;;5052633;28;20025;-67
2023/10/21 02:20:14;;;;;;;423.83;381.67;;;;;;;;;;5052223;28;20024;-66
2023/10/21 02:22:40;;;;;;;417.00;375.73;;;;;;;;;;5052698;28;20394;-67
2023/10/21 02:25:08;;;;;;;429.45;386.45;;;;;;;;;;5052042;28;20025;-67
2023/10/21 02:27:34;;;;;;;415.95;375.70;;;;;;;;;;5052719;28;20111;-67
2023/10/21 02:30:00;;;;;;;415.27;374.85;;;;;;;;;;5050337;28;20057;-67
2023/10/21 02:32:26;;;;;;;411.92;372.33;;;;;;;;;;5051966;28;20025;-67
2023/10/21 02:34:55;;;;;;;412.40;372.45;;;;;;;;;;5052491;28;20041;-67
2023/10/21 02:37:22;;;;;;;412.15;373.25;;;;;;;;;;5048037;28;20457;-67
2023/10/21 02:39:50;;;;;;;421.73;379.98;;;;;;;;;;5051025;28;20036;-67
2023/10/21 02:42:20;;;;;;;429.50;387.25;;;;;;;;;;5051889;28;20029;-67
2023/10/21 02:44:46;;;;;;;430.55;386.23;;;;;;;;;;5048851;28;20032;-68
2023/10/21 02:47:12;;;;;;;418.65;377.98;;;;;;;;;;5051835;28;20467;-68
2023/10/21 02:49:38;;;;;;;420.02;378.98;;;;;;;;;;5052489;28;20017;-68
2023/10/21 02:52:04;;;;;;;436.77;391.77;;;;;;;;;;5052062;28;20029;-69
2023/10/21 02:54:30;;;;;;;417.90;376.58;;;;;;;;;;5052284;28;20112;-69
2023/10/21 02:56:56;;;;;;;416.27;375.23;;;;;;;;;;5052337;28;20077;-69
2023/10/21 02:59:22;;;;;;;431.15;387.25;;;;;;;;;;5049963;28;20033;-68
2023/10/21 03:01:48;;;;;;;426.20;383.35;;;;;;;;;;5051898;28;20045;-69
2023/10/21 03:04:14;;;;;;;420.33;379.83;;;;;;;;;;5051453;28;20403;-69
2023/10/21 03:06:40;;;;;;;414.48;374.35;;;;;;;;;;5047761;28;20135;-69
2023/10/21 03:09:07;;;;;;;418.27;378.13;;;;;;;;;;5051691;28;20071;-68
2023/10/21 03:11:33;;;;;;;419.60;378.50;;;;;;;;;;5051913;28;20041;-68
2023/10/21 03:13:59;;;;;;;413.63;374.33;;;;;;;;;;5051826;28;20052;-68
2023/10/21 03:16:25;;;;;;;421.45;380.50;;;;;;;;;;5047191;28;20056;-68
2023/10/21 03:18:51;;;;;;;420.95;379.08;;;;;;;;;;5052109;28;20056;-69
2023/10/21 03:21:17;;;;;;;416.73;376.67;;;;;;;;;;5051259;28;20365;-68
2023/10/21 03:23:44;;;;;;;409.25;370.10;;;;;;;;;;5051942;28;20032;-68
2023/10/21 03:26:10;;;;;;;413.55;374.30;;;;;;;;;;5051402;28;20029;-68
2023/10/21 03:28:36;;;;;;;407.73;369.77;;;;;;;;;;5050203;28;20021;-68
2023/10/21 03:31:06;;;;;;;416.65;377.13;;;;;;;;;;5051250;28;20574;-69
2023/10/21 03:33:33;;;;;;;410.70;372.40;;;;;;;;;;5050399;28;20155;-69
2023/10/21 03:36:00;;;;;;;416.83;377.55;;;;;;;;;;5051574;28;20025;-69
2023/10/21 03:38:26;;;;;;;397.80;361.67;;;;;;;;;;5051056;28;20048;-68
2023/10/21 03:41:08;;;;;;;408.35;371.25;;;;;;;;;;5051433;28;20571;-68
2023/10/21 03:43:35;;;;;;;408.77;370.65;;;;;;;;;;5048802;28;20021;-68
2023/10/21 03:46:05;;;;;;;409.15;372.05;;;;;;;;;;5047812;28;20040;-68
2023/10/21 03:48:31;;;;;;;;;;;;;;;;;;5051671;28;20239;-69
2023/10/21 03:51:13;;;;;;;409.60;371.63;;;;;;;;;;5051309;28;19911;-69
2023/10/21 03:53:43;;;;;;;428.33;385.80;;;;;;;;;;5051578;28;20024;-66
2023/10/21 03:56:09;;;;;;;416.23;378.55;;;;;;;;;;5050474;28;20032;-65
2023/10/21 03:58:36;;;;;;;410.73;371.83;;;;;;;;;;5049279;28;20021;-66
2023/10/21 04:01:02;;;;;;;409.35;369.90;;;;;;;;;;5050582;28;20499;-66
2023/10/21 04:03:28;;;;;;;424.25;381.10;;;;;;;;;;5049769;28;20021;-65
2023/10/21 04:05:55;;;;;;;408.58;369.02;;;;;;;;;;5050522;28;20101;-66
2023/10/21 04:08:22;;;;;;;424.52;382.25;;;;;;;;;;5050281;28;20548;-66
2023/10/21 04:10:48;;;;;;;421.33;377.63;;;;;;;;;;5050570;28;20056;-67
2023/10/21 04:13:14;;;;;;;423.20;381.75;;;;;;;;;;5050338;28;20040;-65
2023/10/21 04:15:40;;;;;;;425.42;380.58;;;;;;;;;;5046886;28;20024;-66
2023/10/21 04:18:06;;;;;;;415.92;373.15;;;;;;;;;;5053103;28;20604;-65
2023/10/21 04:20:32;;;;;;;402.67;365.30;;;;;;;;;;5054708;28;20886;-65
2023/10/21 04:22:59;;;;;;;418.55;378.63;;;;;;;;;;5054789;28;20021;-65
2023/10/21 04:25:26;;;;;;;424.40;383.40;;;;;;;;;;5054247;28;20071;-66
2023/10/21 04:27:52;;;;;;;407.25;370.88;;;;;;;;;;5054462;28;20406;-66
2023/10/21 04:30:18;;;;;;;423.27;383.98;;;;;;;;;;5052316;28;20072;-66
2023/10/21 04:32:44;;;;;;;402.67;367.98;;;;;;;;;;5052105;28;20429;-66
2023/10/21 04:35:10;;;;;;;420.42;381.58;;;;;;;;;;5054086;28;20107;-65
2023/10/21 04:37:36;;;;;;;416.00;377.77;;;;;;;;;;5054626;28;20060;-65
2023/10/21 04:40:03;;;;;;;429.55;387.95;;;;;;;;;;5054351;28;20029;-66
2023/10/21 04:42:29;;;;;;;407.48;371.08;;;;;;;;;;5053981;28;20047;-66
2023/10/21 04:44:58;;;;;;;384.92;353.25;;;;;;;;;;5050669;28;20021;-66
2023/10/21 04:47:24;;;;;;;422.35;382.55;;;;;;;;;;5053778;28;20059;-66
2023/10/21 04:49:50;;;;;;;425.40;384.17;;;;;;;;;;5054317;28;20510;-66
2023/10/21 04:52:16;;;;;;;443.00;396.35;;;;;;;;;;5053692;28;20033;-66
2023/10/21 04:54:42;;;;;;;424.08;380.20;;;;;;;;;;5054074;28;20130;-67
2023/10/21 04:57:09;;;;;;;424.40;381.95;;;;;;;;;;5053672;28;20048;-66
2023/10/21 04:59:35;;;;;;;393.23;358.27;;;;;;;;;;5051190;28;20094;-67
2023/10/21 05:02:01;;;;;;;434.25;387.25;;;;;;;;;;5053524;28;20052;-66
2023/10/21 05:04:27;;;;;;;424.40;381.13;;;;;;;;;;5053796;28;20021;-69
2023/10/21 05:06:53;;;;;;;441.25;393.40;;;;;;;;;;5054480;28;20557;-68
2023/10/21 05:09:19;;;;;;;439.83;393.02;;;;;;;;;;5054003;28;20017;-68
2023/10/21 05:11:45;;;;;;;445.55;397.30;;;;;;;;;;5054151;28;20486;-67
2023/10/21 05:14:11;;;;;;;443.38;395.50;;;;;;;;;;5052571;28;20021;-67
2023/10/21 05:16:37;;;;;;;449.90;400.83;;;;;;;;;;5051507;28;20075;-67
2023/10/21 05:19:04;;;;;;;443.45;395.38;;;;;;;;;;5054323;28;20375;-67
2023/10/21 05:21:31;;;;;;;452.20;402.95;;;;;;;;;;5053511;28;20460;-67
2023/10/21 05:23:57;;;;;;;448.02;399.38;;;;;;;;;;5050344;28;20040;-67
2023/10/21 05:26:25;;;;;;;454.15;404.33;;;;;;;;;;5053319;28;20029;-68
2023/10/21 05:28:51;;;;;;;438.52;390.10;;;;;;;;;;5051766;28;20045;-67
2023/10/21 05:31:17;;;;;;;446.10;396.70;;;;;;;;;;5052911;28;20037;-67
2023/10/21 05:33:44;;;;;;;494.23;428.08;;;;;;;;;;5050020;28;20025;-68
2023/10/21 05:36:11;;;;;;;454.00;403.50;;;;;;;;;;5053262;28;20071;-69
2023/10/21 05:38:37;;;;;;;465.17;413.67;;;;;;;;;;5053841;28;20552;-67
2023/10/21 05:41:03;;;;;;;462.42;408.92;;;;;;;;;;5052292;28;20033;-67
2023/10/21 05:43:29;;;;;;;465.67;406.23;;;;;;;;;;5053108;28;20807;-67
2023/10/21 05:45:55;;;;;;;452.65;389.15;;;;;;;;;;5049707;28;20017;-67
2023/10/21 05:48:21;;;;;;;476.35;415.15;;;;;;;;;;5052746;28;20055;-68
2023/10/21 05:50:47;;;;;;;467.52;406.13;;;;;;;;;;5053049;28;20035;-68
2023/10/21 05:53:13;;;;;;;444.90;390.60;;;;;;;;;;5052572;28;20033;-68
2023/10/21 05:55:41;;;;;;;474.52;411.80;;;;;;;;;;5048632;28;20034;-68
2023/10/21 05:58:07;;;;;;;446.90;392.45;;;;;;;;;;5042772;28;20021;-68
2023/10/21 06:00:33;;;;;;;449.08;399.48;;;;;;;;;;5043759;28;20064;-68
2023/10/21 06:02:59;;;;;;;474.50;409.55;;;;;;;;;;5048462;28;20051;-68
2023/10/21 06:05:25;;;;;;;490.10;424.17;;;;;;;;;;5048034;28;20102;-67
2023/10/21 06:07:51;;;;;;;492.83;423.40;;;;;;;;;;5045809;28;20036;-67
2023/10/21 06:10:17;;;;;;;493.48;431.05;;;;;;;;;;5047214;28;20021;-67
2023/10/21 06:12:44;;;;;;;472.33;411.20;;;;;;;;;;5051057;28;20111;-67
2023/10/21 06:15:11;;;;;;;487.42;426.35;;;;;;;;;;5048615;28;20029;-66
2023/10/21 06:17:37;;;;;;;491.63;419.83;;;;;;;;;;5047389;28;20110;-66
2023/10/21 06:20:03;;;;;;;488.92;413.35;;;;;;;;;;5044191;28;20029;-66
2023/10/21 06:22:30;;;;;;;469.23;405.98;;;;;;;;;;5050005;28;20021;-66
2023/10/21 06:24:56;;;;;;;466.58;408.02;;;;;;;;;;5044038;28;20021;-66
2023/10/21 06:27:22;;;;;;;468.63;409.90;;;;;;;;;;5049881;28;20029;-65
2023/10/21 06:29:49;;;;;;;456.25;400.05;;;;;;;;;;5041514;28;20372;-66
2023/10/21 06:32:15;;;;;;;441.30;390.05;;;;;;;;;;5050749;28;20031;-66
2023/10/21 06:34:41;;;;;;;464.98;406.52;;;;;;;;;;5047514;28;20103;-65
2023/10/21 06:37:08;;;;;;;462.42;395.98;;;;;;;;;;5043784;28;20025;-67
2023/10/21 06:39:35;;;;;;;475.40;392.33;;;;;;;;;;5041506;28;20056;-65
2023/10/21 06:42:01;;;;;;;486.45;401.35;;;;;;;;;;5046048;28;20036;-65
2023/10/21 06:44:28;;;;;;;502.02;416.38;;;;;;;;;;5043072;28;20021;-65
2023/10/21 06:46:54;;;;;;;508.23;412.08;;;;;;;;;;5041471;28;20032;-66
2023/10/21 06:49:23;;;;;;;518.25;423.80;;;;;;;;;;5048086;28;20064;-65
2023/10/21 06:51:49;;;;;;;506.35;418.00;;;;;;;;;;5043604;28;20031;-66
2023/10/21 06:54:17;;;;;;;510.67;420.70;;;;;;;;;;5037305;28;20020;-65
2023/10/21 06:56:43;;;;;;;493.48;406.30;;;;;;;;;;5037722;28;20145;-65
2023/10/21 06:59:09;;;;;;;479.52;402.70;;;;;;;;;;5046679;28;20145;-65
2023/10/21 07:01:35;;;;;;;468.67;396.45;;;;;;;;;;5013969;28;20136;-65
2023/10/21 07:04:03;;;;;;;485.88;409.65;;;;;;;;;;5018163;28;20053;-66
2023/10/21 07:06:29;;;;;;;483.42;415.10;;;;;;;;;;5024430;28;20031;-65
2023/10/21 07:08:55;;;;;;;466.55;398.60;;;;;;;;;;5026531;28;20116;-66
2023/10/21 07:11:21;;;;;;;457.63;400.33;;;;;;;;;;5026167;28;20109;-65
2023/10/21 07:13:47;;;;;;;458.17;399.35;;;;;;;;;;5025787;28;20645;-66
2023/10/21 07:16:14;;;;;;;449.17;393.48;;;;;;;;;;5029125;28;20010;-65
2023/10/21 07:18:40;;;;;;;443.63;394.05;;;;;;;;;;5027354;28;20772;-66
2023/10/21 07:21:08;;;;;;;442.52;390.98;;;;;;;;;;5028482;28;20054;-66
2023/10/21 07:23:35;;;;;;;442.27;393.35;;;;;;;;;;5030592;28;20045;-65
2023/10/21 07:26:02;;;;;;;455.75;401.85;;;;;;;;;;5044336;28;20048;-66
2023/10/21 07:28:28;;;;;;;460.25;404.92;;;;;;;;;;5042651;28;20025;-66
2023/10/21 07:30:54;;;;;;;464.00;398.15;;;;;;;;;;5045507;28;20025;-67
2023/10/21 07:33:23;;;;;;;457.50;405.52;;;;;;;;;;5051688;28;20029;-66
2023/10/21 07:35:51;;;;;;;453.60;394.20;;;;;;;;;;5044363;28;20083;-66
2023/10/21 07:38:17;;;;;;;448.83;393.92;;;;;;;;;;5044921;28;20024;-66
2023/10/21 07:40:43;;;;;;;450.95;395.45;;;;;;;;;;5039731;28;20021;-66
2023/10/21 07:43:09;;;;;;;443.63;391.27;;;;;;;;;;5044474;28;20100;-66
2023/10/21 07:45:35;;;;;;;448.77;396.52;;;;;;;;;;5040871;28;20385;-67
2023/10/21 07:48:02;;;;;;;451.02;392.77;;;;;;;;;;5043095;28;20497;-66
2023/10/21 07:50:29;;;;;;;454.83;401.73;;;;;;;;;;5042385;28;20013;-66
2023/10/21 07:52:55;;;;;;;446.67;393.50;;;;;;;;;;5041173;28;20102;-66
2023/10/21 07:55:21;;;;;;;442.08;393.60;;;;;;;;;;5049834;28;20044;-67
2023/10/21 07:57:47;;;;;;;444.25;395.30;;;;;;;;;;5044851;28;20101;-66
2023/10/21 08:00:16;;;;;;;463.70;414.10;;;;;;;;;;5039290;28;20437;-66
2023/10/21 08:02:43;;;;;;;463.30;414.08;;;;;;;;;;4998654;28;20057;-66
2023/10/21 08:05:13;;;;;;;442.73;393.95;;;;;;;;;;5025165;28;20036;-66
2023/10/21 08:07:39;;;;;;;436.20;389.25;;;;;;;;;;5016853;28;20108;-66
2023/10/21 08:10:05;;;;;;;438.42;391.20;;;;;;;;;;5025698;28;20026;-66
2023/10/21 08:12:35;;;;;;;440.20;393.73;;;;;;;;;;5025038;28;20032;-65
2023/10/21 08:15:08;;;;;;;435.85;388.83;;;;;;;;;;5019484;28;20076;-67
2023/10/21 08:17:34;;;;;;;440.33;393.02;;;;;;;;;;5023629;28;20337;-66
2023/10/21 08:20:01;;;;;;;428.40;382.75;;;;;;;;;;5027368;28;20018;-66
2023/10/21 08:22:27;;;;;;;447.10;398.85;;;;;;;;;;5023712;28;20029;-66
2023/10/21 08:24:53;;;;;;;427.17;381.75;;;;;;;;;;5023432;28;20026;-65
2023/10/21 08:27:19;;;;;;;424.23;380.92;;;;;;;;;;5023723;28;20080;-66
2023/10/21 08:29:45;;;;;;;421.52;378.42;;;;;;;;;;5020341;28;20026;-66
2023/10/21 08:32:11;;;;;;;428.50;383.75;;;;;;;;;;5021811;28;20488;-66
2023/10/21 08:34:37;;;;;;;419.65;378.05;;;;;;;;;;5024293;28;20033;-68
2023/10/21 08:37:04;;;;;;;413.50;372.60;;;;;;;;;;5027501;28;20053;-68
2023/10/21 08:39:30;;;;;;;428.85;385.80;;;;;;;;;;5029933;28;20021;-67
2023/10/21 08:41:58;;;;;;;416.80;375.83;;;;;;;;;;5025278;28;20076;-68
2023/10/21 08:44:24;;;;;;;422.77;380.90;;;;;;;;;;5022907;28;20496;-67
2023/10/21 08:46:53;;;;;;;423.95;380.73;;;;;;;;;;5021474;28;20030;-68
2023/10/21 08:49:20;;;;;;;424.13;380.98;;;;;;;;;;5027600;28;20025;-67
2023/10/21 08:51:46;;;;;;;412.30;372.15;;;;;;;;;;5023790;28;20419;-68
2023/10/21 08:54:12;;;;;;;445.98;399.10;;;;;;;;;;5022164;28;20091;-68
2023/10/21 08:56:39;;;;;;;440.40;395.77;;;;;;;;;;5023426;28;20037;-68
2023/10/21 08:59:05;;;;;;;429.48;388.52;;;;;;;;;;5018163;28;20024;-69
2023/10/21 09:01:34;;;;;;;434.60;391.35;;;;;;;;;;5037716;28;20714;-68
2023/10/21 09:04:00;;;;;;;413.60;374.27;;;;;;;;;;5042913;28;20029;-68
2023/10/21 09:06:26;;;;;;;450.88;404.95;;;;;;;;;;5045036;28;20137;-68
2023/10/21 09:08:52;;;;;;;442.70;397.05;;;;;;;;;;5044557;28;20032;-68
2023/10/21 09:11:20;;;;;;;445.23;398.50;;;;;;;;;;5045547;28;20818;-68
2023/10/21 09:13:48;;;;;;;431.50;387.75;;;;;;;;;;5049847;28;20032;-68
2023/10/21 09:16:25;;;;;;;446.80;400.15;;;;;;;;;;5043419;28;20032;-68
2023/10/21 09:18:57;;;;;;;450.85;402.95;;;;;;;;;;5033253;28;20036;-68
2023/10/21 09:21:37;;;;;;;470.45;418.73;;;;;;;;;;5035402;28;20136;-68
2023/10/21 09:24:03;;;;;;;;;;;;;;;;;;5032685;28;20099;-68
2023/10/21 09:26:34;;;;;;;469.63;419.38;;;;;;;;;;5035393;28;19909;-68
2023/10/21 09:29:27;;;;;;;648.08;429.17;;;;;;;;;;5041145;28;20063;-65
2023/10/21 09:31:53;;;;;;;730.13;465.42;;;;;;;;;;5035760;28;20053;-65
2023/10/21 09:34:20;;;;;;;;;;;;;;;;;;5043587;28;20055;-65
2023/10/21 09:36:47;;;;;;;10.00;1.50;;;;;;;;;;5040087;28;19947;-64
2023/10/21 09:39:13;;;;;;;2.60;0.93;;;;;;;;;;5036872;28;20129;-64
2023/10/21 09:41:40;;;;;;;9.80;1.40;;;;;;;;;;5037173;28;20087;-67
2023/10/21 09:44:07;;;;;;;3.95;1.30;;;;;;;;;;4842262;28;20052;-64
2023/10/21 09:46:35;;;;;;;5.90;1.40;;;;;;;;;;5020522;28;20017;-64
2023/10/21 09:49:03;;;;;;;6.85;1.40;;;;;;;;;;4993834;28;20071;-65
2023/10/21 09:53:15;;;;;;;6.07;1.55;;;;;;;;;;4961725;27;20456;-62
2023/10/21 09:55:41;;;;;;;3.80;1.02;;;21.90;73.20;;;;;;4824691;28;20070;-62
2023/10/21 09:58:09;;;;;;;4.65;1.17;;;21.00;76.70;;;;;;4991128;28;20124;-61
2023/10/21 10:10:38;;;;;;;36.30;11.90;;;23.10;74.90;;;;;;4884170;27;20365;-59
2023/10/21 10:13:09;;;;;;;29.80;9.00;;;21.70;91.20;;;;;;4952447;28;20075;-57
2023/10/21 10:15:38;;;;;;;1.63;0.70;;;22.80;76.10;;;;;;4961188;28;20524;-66
2023/10/21 10:18:05;;;;;;;1.20;0.70;;;21.90;67.60;;;;;;4962480;28;20023;-66
2023/10/21 10:20:31;;;;;;;2.47;0.70;;;18.50;77.30;;;;;;5019803;28;20136;-66
2023/10/21 10:23:09;;;;;;;2.50;0.80;;;19.60;74.90;;;;;;4960664;28;20803;-66
2023/10/21 10:25:37;;;;;;;4.90;0.80;;;19.40;73.90;;;;;;4966971;28;20033;-66
2023/10/21 10:28:21;;;;;;;4.47;0.75;;;19.00;74.50;;;;;;4965592;28;20185;-66
2023/10/21 10:30:53;;;;;;;2.15;0.77;;;19.10;78.80;;;;;;4957454;28;20085;-66
2023/10/21 10:33:22;;;;;;;2.38;0.75;;;19.40;73.20;;;;;;4971803;28;20762;-66
2023/10/21 10:35:51;;;;;;;1.67;0.75;;;19.20;72.40;;;;;;4981066;28;20023;-66
2023/10/21 10:38:24;;;;;;;3.25;0.73;;;18.80;72.90;;;;;;5004268;28;20015;-66
2023/10/21 10:40:52;;;;;;;3.00;0.90;;;18.50;79.00;;;;;;4973063;28;20524;-66
2023/10/21 10:43:18;;;;;;;1.02;0.60;;;18.00;81.10;;;;;;4971183;28;20038;-66
2023/10/21 10:45:46;;;;;;;1.95;0.80;;;18.00;74.90;;;;;;4957339;28;20023;-66
2023/10/21 10:48:12;;;;;;;2.45;0.80;;;17.40;78.50;;;;;;4975701;28;20023;-66
2023/10/21 10:50:38;;;;;;;4.15;1.35;;;16.80;81.50;;;;;;4963562;28;20043;-66
2023/10/21 10:53:18;;;;;;;2.10;0.80;;;17.00;82.50;;;;;;4954881;28;20118;-64
2023/10/21 10:55:47;;;;;;;3.47;0.93;;;17.40;79.90;;;;;;4955664;28;20038;-65
2023/10/21 10:58:12;;;;;;;5.03;0.90;;;17.50;77.10;;;;;;4955603;28;20551;-64
2023/10/21 11:00:41;;;;;;;1.85;0.85;;;18.00;75.70;;;;;;5012039;28;20032;-64
2023/10/21 11:03:08;;;;;;;2.17;0.80;;;18.20;72.50;;;;;;4962921;28;20077;-65
2023/10/21 11:05:38;;;;;;;2.20;0.70;;;18.80;76.60;;;;;;4966173;28;20023;-65
2023/10/21 11:08:07;;;;;;;2.85;0.85;;;18.80;73.70;;;;;;4963846;28;20031;-64
2023/10/21 11:10:33;;;;;;;3.17;0.70;;;18.20;72.00;;;;;;4963668;28;20414;-65
2023/10/21 11:12:59;;;;;;;3.28;0.90;;;18.20;77.50;;;;;;4961549;28;20038;-64
2023/10/21 11:15:25;;;;;;;2.75;1.00;;;18.10;74.70;;;;;;4964658;28;20374;-64
2023/10/21 11:17:52;;;;;;;3.50;0.80;;;;;;;;;;5048609;28;20367;-64
2023/10/21 11:20:19;;;;;;;1.20;0.70;;;17.90;81.00;;;;;;4961401;28;20065;-64
2023/10/21 11:22:45;;;;;;;4.57;0.90;;;18.20;80.40;;;;;;4952298;28;20506;-65
2023/10/21 11:25:11;;;;;;;3.80;0.80;;;19.00;79.60;;;;;;4952542;28;20031;-65
2023/10/21 11:27:39;;;;;;;1.95;0.70;;;19.00;77.00;;;;;;4947929;28;20051;-64
2023/10/21 11:30:09;;;;;;;1.20;0.80;;;17.90;82.40;;;;;;4950482;28;20022;-64
2023/10/21 11:32:37;;;;;;;5.10;1.10;;;18.10;79.50;;;;;;4949385;28;20034;-64
2023/10/21 11:35:10;;;;;;;3.90;0.90;;;17.50;85.90;;;;;;4951529;28;20031;-64
2023/10/21 11:37:38;;;;;;;3.10;1.00;;;16.50;86.50;;;;;;4949631;28;20426;-64
2023/10/21 11:40:04;;;;;;;5.32;1.05;;;16.50;87.30;;;;;;4950351;29;20474;-64
2023/10/21 11:42:32;;;;;;;2.30;0.80;;;16.30;81.30;;;;;;4949094;28;20038;-64
2023/10/21 11:45:00;;;;;;;3.15;0.98;;;15.50;88.80;;;;;;4948618;28;20023;-64
2023/10/21 11:47:27;;;;;;;3.33;1.00;;;16.00;90.90;;;;;;4950339;28;20027;-64
2023/10/21 11:49:54;;;;;;;2.47;1.00;;;15.90;90.30;;;;;;4951331;28;20021;-64
2023/10/21 11:52:29;;;;;;;2.50;0.98;;;15.80;90.40;;;;;;4950963;28;20058;-64
2023/10/21 11:57:46;;;;;;;2.45;0.93;;;16.20;92.50;;;;;;4950865;28;20030;-64
2023/10/21 12:11:41;;;;;;;3.90;1.00;;;17.10;87.60;;;;;;4951066;29;20520;-66
2023/10/21 12:42:50;;;;;;;2.30;0.80;;;18.40;75.90;;;;;;4943438;28;20042;-66
2023/10/21 12:45:19;;;;;;;2.65;0.88;;;18.30;79.10;;;;;;4941802;28;20058;-66
2023/10/21 12:47:48;;;;;;;2.90;1.00;;;19.20;76.20;;;;;;4942724;28;20576;-66
2023/10/21 12:50:14;;;;;;;2.50;0.80;;;19.50;75.00;;;;;;4941185;29;20035;-66
2023/10/21 12:52:41;;;;;;;3.17;0.85;;;;;;;;;;4943097;28;20027;-66
2023/10/21 12:55:10;;;;;;;3.58;1.10;;;20.90;69.30;;;;;;4967750;28;20032;-66
2023/10/21 12:57:41;;;;;;;3.45;1.10;;;20.80;69.90;;;;;;4966968;28;20026;-67
2023/10/21 13:00:09;;;;;;;3.55;1.08;;;19.90;70.30;;;;;;4963712;28;20149;-66
2023/10/21 13:02:35;;;;;;;3.10;1.05;;;19.80;71.10;;;;;;4968146;28;20046;-66
2023/10/21 13:05:04;;;;;;;3.83;1.00;;;19.80;70.70;;;;;;4961205;28;20098;-66
2023/10/21 13:07:31;;;;;;;2.80;0.90;;;20.90;70.30;;;;;;4963144;28;20097;-66
2023/10/21 13:09:58;;;;;;;3.22;0.80;;;20.20;67.40;;;;;;4977607;28;20064;-66
2023/10/21 13:12:23;;;;;;;7.07;1.40;;;19.70;71.00;;;;;;4958712;28;20081;-66
2023/10/21 13:14:50;;;;;;;2.50;0.80;;;19.50;68.90;;;;;;4974332;28;20028;-65
2023/10/21 13:17:17;;;;;;;4.57;1.15;;;19.20;73.20;;;;;;4970405;28;20543;-65
2023/10/21 13:19:43;;;;;;;5.65;0.98;;;18.40;70.90;;;;;;4973746;28;20035;-65
2023/10/21 13:22:08;;;;;;;3.60;0.95;;;18.40;72.60;;;;;;4962816;28;20031;-65
2023/10/21 13:24:37;;;;;;;5.50;1.30;;;17.90;71.90;;;;;;4970983;28;20027;-65
2023/10/21 13:27:05;;;;;;;4.53;1.10;;;18.70;74.10;;;;;;4970324;28;20050;-66
2023/10/21 13:29:32;;;;;;;5.82;1.17;;;17.40;73.10;;;;;;4972586;28;20043;-65
2023/10/21 13:31:59;;;;;;;8.07;1.10;;;17.40;70.30;;;;;;4957959;28;20042;-65
2023/10/21 13:34:24;;;;;;;3.88;0.95;;;18.50;71.30;;;;;;4978709;28;20060;-66
2023/10/21 13:36:51;;;;;;;5.95;1.33;;;17.10;70.80;;;;;;4957252;28;20104;-65
2023/10/21 13:39:18;;;;;;;8.38;1.15;;;18.30;72.00;;;;;;4973296;28;20585;-65
2023/10/21 13:41:47;;;;;;;7.50;1.10;;;16.60;71.80;;;;;;4968276;28;20019;-65
2023/10/21 13:44:12;;;;;;;5.20;1.23;;;16.90;71.80;;;;;;4959809;28;20027;-65
2023/10/21 13:46:38;;;;;;;5.32;1.30;;;17.20;72.20;;;;;;4950578;28;20065;-65
2023/10/21 13:49:13;;;;;;;3.88;0.90;;;18.00;72.60;;;;;;4957197;28;20024;-65
2023/10/21 13:51:51;;;;;;;3.53;1.00;;;16.50;71.00;;;;;;4958181;28;20027;-65
2023/10/21 13:54:17;;;;;;;4.32;1.55;;;17.10;72.20;;;;;;4954569;28;20598;-65
2023/10/21 13:56:43;;;;;;;3.13;0.88;;;16.90;70.10;;;;;;4967815;28;20031;-65
2023/10/21 13:59:15;;;;;;;7.20;1.35;;;18.20;71.10;;;;;;4969838;28;20527;-65
2023/10/21 14:01:42;;;;;;;5.53;1.20;;;17.60;70.70;;;;;;4956086;28;20031;-65
2023/10/21 14:04:12;;;;;;;4.50;1.10;;;17.10;70.60;;;;;;4955939;28;20121;-65
2023/10/21 14:06:39;;;;;;;4.18;1.30;;;17.20;70.00;;;;;;4956667;28;20161;-65
2023/10/21 14:09:05;;;;;;;3.65;1.13;;;17.60;70.90;;;;;;4967361;28;20043;-65
2023/10/21 14:11:33;;;;;;;4.25;1.08;;;17.00;74.40;;;;;;4959625;28;20081;-65
2023/10/21 14:13:59;;;;;;;6.47;1.35;;;16.50;74.40;;;;;;4952793;28;20020;-65
2023/10/21 14:16:24;;;;;;;7.18;1.20;;;16.80;75.90;;;;;;4954810;28;20046;-65
2023/10/21 14:18:50;;;;;;;5.50;1.08;;;17.10;76.90;;;;;;4951608;28;20027;-65
2023/10/21 14:21:18;;;;;;;3.13;0.90;;;16.50;76.70;;;;;;4957986;28;20561;-65
2023/10/21 14:23:44;;;;;;;4.28;0.90;;;16.30;76.90;;;;;;4976860;28;20036;-67
2023/10/21 14:26:11;;;;;;;8.25;1.48;;;16.20;76.60;;;;;;4944338;28;20071;-66
2023/10/21 14:28:38;;;;;;;7.60;1.17;;;16.30;78.40;;;;;;4950424;28;20031;-66
2023/10/21 14:31:06;;;;;;;4.40;1.05;;;16.30;76.70;;;;;;4945203;28;21028;-65